sensor_id;sensor_type;location;lat;lon;timestamp;P1;durP1;ratioP1;P2;durP2;ratioP2
42840;SDS011;28491;46.898;7.660;2023-03-30T00:02:20;17.90;;;4.25;;
42840;SDS011;28491;46.898;7.660;2023-03-30T00:04:47;15.20;;;4.32;;
42840;SDS011;28491;46.898;7.660;2023-03-30T00:09:43;17.90;;;6.20;;
42840;SDS011;28491;46.898;7.660;2023-03-30T00:12:10;14.35;;;3.90;;
42840;SDS011;28491;46.898;7.660;2023-03-30T00:14:44;14.98;;;4.60;;
42840;SDS011;28491;46.898;7.660;2023-03-30T00:17:10;23.60;;;5.90;;
42840;SDS011;28491;46.898;7.660;2023-03-30T00:19:36;12.02;;;4.07;;
42840;SDS011;28491;46.898;7.660;2023-03-30T00:22:03;10.70;;;4.38;;
42840;SDS011;28491;46.898;7.660;2023-03-30T00:24:29;14.95;;;4.55;;
42840;SDS011;28491;46.898;7.660;2023-03-30T00:26:55;15.85;;;6.07;;
42840;SDS011;28491;46.898;7.660;2023-03-30T00:29:20;23.98;;;5.95;;
42840;SDS011;28491;46.898;7.660;2023-03-30T00:31:46;23.23;;;8.65;;
42840;SDS011;28491;46.898;7.660;2023-03-30T00:34:11;20.92;;;8.48;;
42840;SDS011;28491;46.898;7.660;2023-03-30T00:36:37;20.48;;;6.13;;
42840;SDS011;28491;46.898;7.660;2023-03-30T00:39:03;17.10;;;5.07;;
42840;SDS011;28491;46.898;7.660;2023-03-30T00:41:31;15.27;;;5.32;;
42840;SDS011;28491;46.898;7.660;2023-03-30T00:43:58;16.20;;;4.63;;
42840;SDS011;28491;46.898;7.660;2023-03-30T00:46:26;17.40;;;5.90;;
42840;SDS011;28491;46.898;7.660;2023-03-30T00:48:54;13.23;;;5.05;;
42840;SDS011;28491;46.898;7.660;2023-03-30T00:51:23;17.98;;;4.32;;
42840;SDS011;28491;46.898;7.660;2023-03-30T00:53:51;15.90;;;4.68;;
42840;SDS011;28491;46.898;7.660;2023-03-30T00:56:22;24.20;;;5.53;;
42840;SDS011;28491;46.898;7.660;2023-03-30T00:58:51;15.48;;;3.90;;
42840;SDS011;28491;46.898;7.660;2023-03-30T01:01:18;20.02;;;3.97;;
42840;SDS011;28491;46.898;7.660;2023-03-30T01:03:52;19.45;;;6.80;;
42840;SDS011;28491;46.898;7.660;2023-03-30T01:06:19;12.27;;;4.43;;
42840;SDS011;28491;46.898;7.660;2023-03-30T01:08:48;14.80;;;4.88;;
42840;SDS011;28491;46.898;7.660;2023-03-30T01:11:15;27.98;;;7.25;;
42840;SDS011;28491;46.898;7.660;2023-03-30T01:13:42;19.13;;;5.03;;
42840;SDS011;28491;46.898;7.660;2023-03-30T01:18:48;21.48;;;5.72;;
42840;SDS011;28491;46.898;7.660;2023-03-30T01:21:31;19.88;;;3.92;;
42840;SDS011;28491;46.898;7.660;2023-03-30T01:27:33;24.98;;;5.00;;
42840;SDS011;28491;46.898;7.660;2023-03-30T01:30:24;18.20;;;3.78;;
42840;SDS011;28491;46.898;7.660;2023-03-30T01:33:11;22.30;;;5.18;;
42840;SDS011;28491;46.898;7.660;2023-03-30T01:38:27;17.15;;;3.63;;
42840;SDS011;28491;46.898;7.660;2023-03-30T01:44:01;14.27;;;4.45;;
42840;SDS011;28491;46.898;7.660;2023-03-30T01:46:40;21.73;;;4.90;;
42840;SDS011;28491;46.898;7.660;2023-03-30T01:49:13;18.10;;;4.40;;
42840;SDS011;28491;46.898;7.660;2023-03-30T01:52:00;14.48;;;3.83;;
42840;SDS011;28491;46.898;7.660;2023-03-30T01:54:33;17.83;;;5.07;;
42840;SDS011;28491;46.898;7.660;2023-03-30T01:57:13;25.30;;;3.53;;
42840;SDS011;28491;46.898;7.660;2023-03-30T01:59:43;20.58;;;4.63;;
42840;SDS011;28491;46.898;7.660;2023-03-30T02:02:40;15.77;;;5.75;;
42840;SDS011;28491;46.898;7.660;2023-03-30T02:05:12;15.85;;;3.70;;
42840;SDS011;28491;46.898;7.660;2023-03-30T02:07:42;20.30;;;3.70;;
42840;SDS011;28491;46.898;7.660;2023-03-30T02:10:16;22.73;;;6.22;;
42840;SDS011;28491;46.898;7.660;2023-03-30T02:12:44;14.98;;;3.70;;
42840;SDS011;28491;46.898;7.660;2023-03-30T02:15:10;16.95;;;4.47;;
42840;SDS011;28491;46.898;7.660;2023-03-30T02:17:39;17.47;;;4.20;;
42840;SDS011;28491;46.898;7.660;2023-03-30T02:20:06;11.07;;;3.55;;
42840;SDS011;28491;46.898;7.660;2023-03-30T02:22:36;17.02;;;3.60;;
42840;SDS011;28491;46.898;7.660;2023-03-30T02:25:02;13.88;;;3.65;;
42840;SDS011;28491;46.898;7.660;2023-03-30T02:27:30;14.75;;;3.75;;
42840;SDS011;28491;46.898;7.660;2023-03-30T02:29:57;14.55;;;4.75;;
42840;SDS011;28491;46.898;7.660;2023-03-30T02:32:24;11.98;;;3.35;;
42840;SDS011;28491;46.898;7.660;2023-03-30T02:37:41;10.63;;;3.47;;
42840;SDS011;28491;46.898;7.660;2023-03-30T02:40:40;11.57;;;3.00;;
42840;SDS011;28491;46.898;7.660;2023-03-30T02:46:29;10.35;;;3.83;;
42840;SDS011;28491;46.898;7.660;2023-03-30T02:51:50;19.38;;;3.97;;
42840;SDS011;28491;46.898;7.660;2023-03-30T02:57:08;19.58;;;3.97;;
42840;SDS011;28491;46.898;7.660;2023-03-30T02:59:44;18.30;;;4.15;;
42840;SDS011;28491;46.898;7.660;2023-03-30T03:02:16;15.90;;;3.75;;
42840;SDS011;28491;46.898;7.660;2023-03-30T03:04:46;16.27;;;3.97;;
42840;SDS011;28491;46.898;7.660;2023-03-30T03:07:14;10.13;;;3.90;;
42840;SDS011;28491;46.898;7.660;2023-03-30T03:09:40;17.30;;;4.15;;
42840;SDS011;28491;46.898;7.660;2023-03-30T03:12:06;21.02;;;4.95;;
42840;SDS011;28491;46.898;7.660;2023-03-30T03:14:32;16.67;;;5.10;;
42840;SDS011;28491;46.898;7.660;2023-03-30T03:16:57;12.85;;;3.55;;
42840;SDS011;28491;46.898;7.660;2023-03-30T03:19:23;15.13;;;3.97;;
42840;SDS011;28491;46.898;7.660;2023-03-30T03:21:49;16.45;;;5.78;;
42840;SDS011;28491;46.898;7.660;2023-03-30T03:24:15;12.82;;;4.15;;
42840;SDS011;28491;46.898;7.660;2023-03-30T03:26:42;15.43;;;3.13;;
42840;SDS011;28491;46.898;7.660;2023-03-30T03:29:08;11.40;;;4.25;;
42840;SDS011;28491;46.898;7.660;2023-03-30T03:31:34;10.15;;;2.78;;
42840;SDS011;28491;46.898;7.660;2023-03-30T03:33:59;15.95;;;3.85;;
42840;SDS011;28491;46.898;7.660;2023-03-30T03:36:26;8.95;;;3.35;;
42840;SDS011;28491;46.898;7.660;2023-03-30T03:38:51;17.52;;;3.83;;
42840;SDS011;28491;46.898;7.660;2023-03-30T03:41:17;11.20;;;4.10;;
42840;SDS011;28491;46.898;7.660;2023-03-30T03:43:43;14.30;;;4.15;;
42840;SDS011;28491;46.898;7.660;2023-03-30T03:46:09;18.13;;;4.35;;
42840;SDS011;28491;46.898;7.660;2023-03-30T03:48:35;18.55;;;3.72;;
42840;SDS011;28491;46.898;7.660;2023-03-30T03:51:01;13.40;;;3.55;;
42840;SDS011;28491;46.898;7.660;2023-03-30T03:53:27;12.48;;;3.75;;
42840;SDS011;28491;46.898;7.660;2023-03-30T03:55:53;11.23;;;4.00;;
42840;SDS011;28491;46.898;7.660;2023-03-30T03:58:18;15.77;;;4.68;;
42840;SDS011;28491;46.898;7.660;2023-03-30T04:00:44;12.70;;;4.10;;
42840;SDS011;28491;46.898;7.660;2023-03-30T04:03:10;16.92;;;4.22;;
42840;SDS011;28491;46.898;7.660;2023-03-30T04:05:36;15.70;;;4.85;;
42840;SDS011;28491;46.898;7.660;2023-03-30T04:08:02;15.68;;;4.40;;
42840;SDS011;28491;46.898;7.660;2023-03-30T04:10:28;22.92;;;4.38;;
42840;SDS011;28491;46.898;7.660;2023-03-30T04:12:55;10.38;;;3.58;;
42840;SDS011;28491;46.898;7.660;2023-03-30T04:15:22;11.70;;;3.58;;
42840;SDS011;28491;46.898;7.660;2023-03-30T04:17:48;22.88;;;5.15;;
42840;SDS011;28491;46.898;7.660;2023-03-30T04:20:16;21.13;;;4.35;;
42840;SDS011;28491;46.898;7.660;2023-03-30T04:22:42;15.90;;;5.57;;
42840;SDS011;28491;46.898;7.660;2023-03-30T04:25:10;11.90;;;4.85;;
42840;SDS011;28491;46.898;7.660;2023-03-30T04:27:41;15.15;;;4.80;;
42840;SDS011;28491;46.898;7.660;2023-03-30T04:30:08;13.75;;;4.57;;
42840;SDS011;28491;46.898;7.660;2023-03-30T04:32:34;20.00;;;4.15;;
42840;SDS011;28491;46.898;7.660;2023-03-30T04:35:03;19.98;;;7.20;;
42840;SDS011;28491;46.898;7.660;2023-03-30T04:37:30;20.48;;;8.07;;
42840;SDS011;28491;46.898;7.660;2023-03-30T04:39:59;20.55;;;6.30;;
42840;SDS011;28491;46.898;7.660;2023-03-30T04:42:26;20.45;;;4.88;;
42840;SDS011;28491;46.898;7.660;2023-03-30T04:45:02;17.98;;;6.10;;
42840;SDS011;28491;46.898;7.660;2023-03-30T04:47:32;16.70;;;6.20;;
42840;SDS011;28491;46.898;7.660;2023-03-30T04:49:57;13.27;;;4.20;;
42840;SDS011;28491;46.898;7.660;2023-03-30T04:52:23;16.65;;;4.50;;
42840;SDS011;28491;46.898;7.660;2023-03-30T04:54:49;20.17;;;5.07;;
42840;SDS011;28491;46.898;7.660;2023-03-30T04:57:14;22.70;;;4.72;;
42840;SDS011;28491;46.898;7.660;2023-03-30T04:59:40;21.63;;;5.88;;
42840;SDS011;28491;46.898;7.660;2023-03-30T05:02:07;16.00;;;4.47;;
42840;SDS011;28491;46.898;7.660;2023-03-30T05:04:33;17.13;;;5.40;;
42840;SDS011;28491;46.898;7.660;2023-03-30T05:06:59;20.33;;;5.57;;
42840;SDS011;28491;46.898;7.660;2023-03-30T05:09:25;17.73;;;5.30;;
42840;SDS011;28491;46.898;7.660;2023-03-30T05:11:51;18.77;;;6.07;;
42840;SDS011;28491;46.898;7.660;2023-03-30T05:14:16;17.38;;;5.65;;
42840;SDS011;28491;46.898;7.660;2023-03-30T05:16:42;14.88;;;6.25;;
42840;SDS011;28491;46.898;7.660;2023-03-30T05:19:07;21.15;;;7.30;;
42840;SDS011;28491;46.898;7.660;2023-03-30T05:21:33;20.35;;;6.40;;
42840;SDS011;28491;46.898;7.660;2023-03-30T05:23:58;15.27;;;5.25;;
42840;SDS011;28491;46.898;7.660;2023-03-30T05:26:24;17.50;;;5.18;;
42840;SDS011;28491;46.898;7.660;2023-03-30T05:28:50;16.48;;;5.50;;
42840;SDS011;28491;46.898;7.660;2023-03-30T05:31:16;15.90;;;4.50;;
42840;SDS011;28491;46.898;7.660;2023-03-30T05:33:43;15.20;;;5.53;;
42840;SDS011;28491;46.898;7.660;2023-03-30T05:36:09;15.82;;;5.25;;
42840;SDS011;28491;46.898;7.660;2023-03-30T05:38:34;19.77;;;6.35;;
42840;SDS011;28491;46.898;7.660;2023-03-30T05:41:00;16.20;;;4.63;;
42840;SDS011;28491;46.898;7.660;2023-03-30T05:43:26;20.38;;;4.70;;
42840;SDS011;28491;46.898;7.660;2023-03-30T05:45:52;20.85;;;5.85;;
42840;SDS011;28491;46.898;7.660;2023-03-30T05:48:17;17.75;;;5.93;;
42840;SDS011;28491;46.898;7.660;2023-03-30T05:50:43;17.70;;;6.22;;
42840;SDS011;28491;46.898;7.660;2023-03-30T05:53:11;19.48;;;6.13;;
42840;SDS011;28491;46.898;7.660;2023-03-30T05:55:36;24.02;;;6.60;;
42840;SDS011;28491;46.898;7.660;2023-03-30T05:58:02;20.08;;;5.63;;
42840;SDS011;28491;46.898;7.660;2023-03-30T06:00:27;18.33;;;5.53;;
42840;SDS011;28491;46.898;7.660;2023-03-30T06:05:23;14.32;;;4.63;;
42840;SDS011;28491;46.898;7.660;2023-03-30T06:07:48;13.52;;;4.88;;
42840;SDS011;28491;46.898;7.660;2023-03-30T06:10:14;14.82;;;5.70;;
42840;SDS011;28491;46.898;7.660;2023-03-30T06:12:40;15.68;;;5.80;;
42840;SDS011;28491;46.898;7.660;2023-03-30T06:15:05;21.45;;;6.13;;
42840;SDS011;28491;46.898;7.660;2023-03-30T06:17:33;15.68;;;5.43;;
42840;SDS011;28491;46.898;7.660;2023-03-30T06:19:59;17.40;;;5.60;;
42840;SDS011;28491;46.898;7.660;2023-03-30T06:22:25;13.15;;;4.40;;
42840;SDS011;28491;46.898;7.660;2023-03-30T06:24:51;26.80;;;7.53;;
42840;SDS011;28491;46.898;7.660;2023-03-30T06:27:16;18.88;;;5.70;;
42840;SDS011;28491;46.898;7.660;2023-03-30T06:29:42;12.48;;;5.57;;
42840;SDS011;28491;46.898;7.660;2023-03-30T06:32:07;20.10;;;6.68;;
42840;SDS011;28491;46.898;7.660;2023-03-30T06:34:33;17.90;;;5.18;;
42840;SDS011;28491;46.898;7.660;2023-03-30T06:36:59;16.60;;;5.45;;
42840;SDS011;28491;46.898;7.660;2023-03-30T06:39:25;21.17;;;4.97;;
42840;SDS011;28491;46.898;7.660;2023-03-30T06:41:50;21.63;;;5.93;;
42840;SDS011;28491;46.898;7.660;2023-03-30T06:44:16;16.90;;;5.10;;
42840;SDS011;28491;46.898;7.660;2023-03-30T06:46:42;21.35;;;4.47;;
42840;SDS011;28491;46.898;7.660;2023-03-30T06:49:07;12.80;;;4.47;;
42840;SDS011;28491;46.898;7.660;2023-03-30T06:51:36;17.17;;;4.28;;
42840;SDS011;28491;46.898;7.660;2023-03-30T06:54:01;19.35;;;4.75;;
42840;SDS011;28491;46.898;7.660;2023-03-30T06:56:27;22.05;;;5.57;;
42840;SDS011;28491;46.898;7.660;2023-03-30T06:58:53;15.00;;;5.80;;
42840;SDS011;28491;46.898;7.660;2023-03-30T07:01:21;14.35;;;4.20;;
42840;SDS011;28491;46.898;7.660;2023-03-30T07:03:46;20.10;;;4.45;;
42840;SDS011;28491;46.898;7.660;2023-03-30T07:06:12;17.27;;;4.90;;
42840;SDS011;28491;46.898;7.660;2023-03-30T07:08:37;15.93;;;4.50;;
42840;SDS011;28491;46.898;7.660;2023-03-30T07:11:04;12.55;;;5.35;;
42840;SDS011;28491;46.898;7.660;2023-03-30T07:13:30;23.13;;;6.10;;
42840;SDS011;28491;46.898;7.660;2023-03-30T07:15:57;17.92;;;4.97;;
42840;SDS011;28491;46.898;7.660;2023-03-30T07:18:22;17.13;;;4.47;;
42840;SDS011;28491;46.898;7.660;2023-03-30T07:20:48;26.23;;;7.05;;
42840;SDS011;28491;46.898;7.660;2023-03-30T07:23:15;17.33;;;5.30;;
42840;SDS011;28491;46.898;7.660;2023-03-30T07:25:41;17.48;;;5.22;;
42840;SDS011;28491;46.898;7.660;2023-03-30T07:28:08;21.80;;;7.00;;
42840;SDS011;28491;46.898;7.660;2023-03-30T07:30:34;25.92;;;6.38;;
42840;SDS011;28491;46.898;7.660;2023-03-30T07:33:00;30.52;;;8.23;;
42840;SDS011;28491;46.898;7.660;2023-03-30T07:35:25;19.88;;;6.65;;
42840;SDS011;28491;46.898;7.660;2023-03-30T07:37:51;24.92;;;7.85;;
42840;SDS011;28491;46.898;7.660;2023-03-30T07:40:17;16.98;;;5.78;;
42840;SDS011;28491;46.898;7.660;2023-03-30T07:42:43;20.17;;;7.43;;
42840;SDS011;28491;46.898;7.660;2023-03-30T07:45:09;25.25;;;8.63;;
42840;SDS011;28491;46.898;7.660;2023-03-30T07:47:35;18.10;;;6.75;;
42840;SDS011;28491;46.898;7.660;2023-03-30T07:50:01;16.58;;;6.40;;
42840;SDS011;28491;46.898;7.660;2023-03-30T07:52:27;23.23;;;8.95;;
42840;SDS011;28491;46.898;7.660;2023-03-30T07:54:53;30.48;;;11.00;;
42840;SDS011;28491;46.898;7.660;2023-03-30T07:57:19;21.75;;;9.10;;
42840;SDS011;28491;46.898;7.660;2023-03-30T07:59:45;22.95;;;5.75;;
42840;SDS011;28491;46.898;7.660;2023-03-30T08:02:12;12.95;;;4.90;;
42840;SDS011;28491;46.898;7.660;2023-03-30T08:04:39;22.25;;;6.90;;
42840;SDS011;28491;46.898;7.660;2023-03-30T08:07:05;17.75;;;7.00;;
42840;SDS011;28491;46.898;7.660;2023-03-30T08:09:31;23.83;;;9.95;;
42840;SDS011;28491;46.898;7.660;2023-03-30T08:11:57;21.48;;;7.25;;
42840;SDS011;28491;46.898;7.660;2023-03-30T08:14:23;23.88;;;8.30;;
42840;SDS011;28491;46.898;7.660;2023-03-30T08:16:51;30.45;;;9.85;;
42840;SDS011;28491;46.898;7.660;2023-03-30T08:21:47;17.50;;;5.80;;
42840;SDS011;28491;46.898;7.660;2023-03-30T08:24:13;16.80;;;5.63;;
42840;SDS011;28491;46.898;7.660;2023-03-30T08:26:38;13.07;;;5.43;;
42840;SDS011;28491;46.898;7.660;2023-03-30T08:29:04;17.67;;;4.65;;
42840;SDS011;28491;46.898;7.660;2023-03-30T08:31:31;18.00;;;4.65;;
42840;SDS011;28491;46.898;7.660;2023-03-30T08:33:56;16.50;;;5.00;;
42840;SDS011;28491;46.898;7.660;2023-03-30T08:36:23;18.48;;;3.30;;
42840;SDS011;28491;46.898;7.660;2023-03-30T08:38:48;11.90;;;3.83;;
42840;SDS011;28491;46.898;7.660;2023-03-30T08:43:53;12.20;;;2.97;;
42840;SDS011;28491;46.898;7.660;2023-03-30T08:46:30;13.02;;;3.08;;
42840;SDS011;28491;46.898;7.660;2023-03-30T08:48:57;14.30;;;3.00;;
42840;SDS011;28491;46.898;7.660;2023-03-30T08:51:31;12.95;;;2.70;;
42840;SDS011;28491;46.898;7.660;2023-03-30T08:54:00;10.15;;;3.28;;
42840;SDS011;28491;46.898;7.660;2023-03-30T08:56:39;9.02;;;2.65;;
42840;SDS011;28491;46.898;7.660;2023-03-30T09:04:19;9.38;;;3.13;;
42840;SDS011;28491;46.898;7.660;2023-03-30T09:06:53;6.15;;;2.92;;
42840;SDS011;28491;46.898;7.660;2023-03-30T09:09:24;9.48;;;2.88;;
42840;SDS011;28491;46.898;7.660;2023-03-30T09:11:54;12.75;;;4.07;;
42840;SDS011;28491;46.898;7.660;2023-03-30T09:14:28;15.63;;;3.88;;
42840;SDS011;28491;46.898;7.660;2023-03-30T09:17:02;12.40;;;3.75;;
42840;SDS011;28491;46.898;7.660;2023-03-30T09:19:34;14.80;;;2.83;;
42840;SDS011;28491;46.898;7.660;2023-03-30T09:22:09;12.60;;;3.03;;
42840;SDS011;28491;46.898;7.660;2023-03-30T09:24:37;11.63;;;2.67;;
42840;SDS011;28491;46.898;7.660;2023-03-30T09:29:53;10.90;;;3.05;;
42840;SDS011;28491;46.898;7.660;2023-03-30T09:32:32;16.47;;;3.23;;
42840;SDS011;28491;46.898;7.660;2023-03-30T09:35:39;10.90;;;2.67;;
42840;SDS011;28491;46.898;7.660;2023-03-30T09:38:02;13.38;;;3.22;;
42840;SDS011;28491;46.898;7.660;2023-03-30T09:40:35;6.80;;;2.92;;
42840;SDS011;28491;46.898;7.660;2023-03-30T09:46:09;10.15;;;3.30;;
42840;SDS011;28491;46.898;7.660;2023-03-30T09:48:37;9.07;;;2.95;;
42840;SDS011;28491;46.898;7.660;2023-03-30T09:51:21;14.20;;;3.90;;
42840;SDS011;28491;46.898;7.660;2023-03-30T09:53:49;9.07;;;2.72;;
42840;SDS011;28491;46.898;7.660;2023-03-30T10:07:22;11.13;;;3.88;;
42840;SDS011;28491;46.898;7.660;2023-03-30T10:09:51;11.70;;;3.47;;
42840;SDS011;28491;46.898;7.660;2023-03-30T10:12:17;11.27;;;3.97;;
42840;SDS011;28491;46.898;7.660;2023-03-30T10:14:43;7.00;;;3.63;;
42840;SDS011;28491;46.898;7.660;2023-03-30T10:17:19;9.93;;;3.83;;
42840;SDS011;28491;46.898;7.660;2023-03-30T10:19:48;9.98;;;4.35;;
42840;SDS011;28491;46.898;7.660;2023-03-30T10:22:17;8.77;;;3.30;;
42840;SDS011;28491;46.898;7.660;2023-03-30T10:24:53;7.30;;;2.83;;
42840;SDS011;28491;46.898;7.660;2023-03-30T10:27:24;7.20;;;3.05;;
42840;SDS011;28491;46.898;7.660;2023-03-30T10:29:57;11.02;;;3.38;;
42840;SDS011;28491;46.898;7.660;2023-03-30T10:32:33;7.38;;;2.80;;
42840;SDS011;28491;46.898;7.660;2023-03-30T10:35:00;9.43;;;5.93;;
42840;SDS011;28491;46.898;7.660;2023-03-30T10:37:36;11.63;;;4.07;;
42840;SDS011;28491;46.898;7.660;2023-03-30T10:40:13;9.15;;;4.78;;
42840;SDS011;28491;46.898;7.660;2023-03-30T10:42:40;10.40;;;4.10;;
42840;SDS011;28491;46.898;7.660;2023-03-30T10:45:06;6.97;;;4.05;;
42840;SDS011;28491;46.898;7.660;2023-03-30T10:47:45;8.57;;;2.85;;
42840;SDS011;28491;46.898;7.660;2023-03-30T10:53:14;7.47;;;2.45;;
42840;SDS011;28491;46.898;7.660;2023-03-30T10:55:49;8.00;;;2.63;;
42840;SDS011;28491;46.898;7.660;2023-03-30T11:03:45;6.57;;;3.15;;
42840;SDS011;28491;46.898;7.660;2023-03-30T11:06:19;5.53;;;2.78;;
42840;SDS011;28491;46.898;7.660;2023-03-30T11:08:52;10.00;;;3.50;;
42840;SDS011;28491;46.898;7.660;2023-03-30T11:11:22;9.48;;;3.10;;
42840;SDS011;28491;46.898;7.660;2023-03-30T11:13:58;7.82;;;2.70;;
42840;SDS011;28491;46.898;7.660;2023-03-30T11:16:30;8.55;;;2.70;;
42840;SDS011;28491;46.898;7.660;2023-03-30T11:19:05;13.50;;;3.90;;
42840;SDS011;28491;46.898;7.660;2023-03-30T11:22:06;16.90;;;3.30;;
42840;SDS011;28491;46.898;7.660;2023-03-30T11:24:35;8.32;;;3.10;;
42840;SDS011;28491;46.898;7.660;2023-03-30T11:27:05;9.70;;;3.17;;
42840;SDS011;28491;46.898;7.660;2023-03-30T11:29:50;11.13;;;2.85;;
42840;SDS011;28491;46.898;7.660;2023-03-30T11:32:32;8.13;;;3.35;;
42840;SDS011;28491;46.898;7.660;2023-03-30T11:38:17;9.73;;;2.78;;
42840;SDS011;28491;46.898;7.660;2023-03-30T11:43:16;11.48;;;2.92;;
42840;SDS011;28491;46.898;7.660;2023-03-30T11:51:27;10.88;;;2.80;;
42840;SDS011;28491;46.898;7.660;2023-03-30T11:54:15;11.15;;;2.88;;
42840;SDS011;28491;46.898;7.660;2023-03-30T11:57:09;6.75;;;3.13;;
42840;SDS011;28491;46.898;7.660;2023-03-30T12:05:30;14.40;;;4.30;;
42840;SDS011;28491;46.898;7.660;2023-03-30T12:10:46;12.60;;;3.20;;
42840;SDS011;28491;46.898;7.660;2023-03-30T12:13:18;10.15;;;2.72;;
42840;SDS011;28491;46.898;7.660;2023-03-30T12:24:07;10.75;;;3.60;;
42840;SDS011;28491;46.898;7.660;2023-03-30T12:26:40;11.38;;;3.28;;
42840;SDS011;28491;46.898;7.660;2023-03-30T12:31:46;12.07;;;3.35;;
42840;SDS011;28491;46.898;7.660;2023-03-30T12:34:12;11.18;;;3.25;;
42840;SDS011;28491;46.898;7.660;2023-03-30T12:36:38;7.97;;;3.67;;
42840;SDS011;28491;46.898;7.660;2023-03-30T12:39:21;10.02;;;2.85;;
42840;SDS011;28491;46.898;7.660;2023-03-30T12:42:05;11.40;;;3.30;;
42840;SDS011;28491;46.898;7.660;2023-03-30T12:44:46;11.60;;;3.05;;
42840;SDS011;28491;46.898;7.660;2023-03-30T12:56:31;7.07;;;3.10;;
42840;SDS011;28491;46.898;7.660;2023-03-30T12:59:07;8.05;;;3.42;;
42840;SDS011;28491;46.898;7.660;2023-03-30T13:04:27;8.93;;;3.97;;
42840;SDS011;28491;46.898;7.660;2023-03-30T13:07:03;12.02;;;3.42;;
42840;SDS011;28491;46.898;7.660;2023-03-30T13:09:33;7.53;;;3.30;;
42840;SDS011;28491;46.898;7.660;2023-03-30T13:14:26;11.18;;;3.70;;
42840;SDS011;28491;46.898;7.660;2023-03-30T13:17:09;10.18;;;3.13;;
42840;SDS011;28491;46.898;7.660;2023-03-30T13:20:27;9.10;;;3.03;;
42840;SDS011;28491;46.898;7.660;2023-03-30T13:22:30;11.40;;;2.55;;
42840;SDS011;28491;46.898;7.660;2023-03-30T13:25:01;6.55;;;2.83;;
42840;SDS011;28491;46.898;7.660;2023-03-30T13:27:49;5.85;;;2.40;;
42840;SDS011;28491;46.898;7.660;2023-03-30T13:30:16;14.55;;;4.95;;
42840;SDS011;28491;46.898;7.660;2023-03-30T13:32:47;10.13;;;3.55;;
42840;SDS011;28491;46.898;7.660;2023-03-30T13:49:43;6.80;;;3.92;;
42840;SDS011;28491;46.898;7.660;2023-03-30T13:52:17;6.40;;;3.30;;
42840;SDS011;28491;46.898;7.660;2023-03-30T13:54:46;7.70;;;3.60;;
42840;SDS011;28491;46.898;7.660;2023-03-30T13:57:15;8.52;;;3.45;;
42840;SDS011;28491;46.898;7.660;2023-03-30T13:59:46;6.28;;;2.35;;
42840;SDS011;28491;46.898;7.660;2023-03-30T14:02:18;9.55;;;3.25;;
42840;SDS011;28491;46.898;7.660;2023-03-30T14:04:46;9.40;;;3.30;;
42840;SDS011;28491;46.898;7.660;2023-03-30T14:07:15;10.40;;;3.00;;
42840;SDS011;28491;46.898;7.660;2023-03-30T14:09:43;15.63;;;4.13;;
42840;SDS011;28491;46.898;7.660;2023-03-30T14:12:26;7.38;;;3.08;;
42840;SDS011;28491;46.898;7.660;2023-03-30T14:14:52;8.95;;;2.58;;
42840;SDS011;28491;46.898;7.660;2023-03-30T14:17:18;6.63;;;2.55;;
42840;SDS011;28491;46.898;7.660;2023-03-30T14:19:52;7.97;;;2.85;;
42840;SDS011;28491;46.898;7.660;2023-03-30T14:22:43;6.72;;;2.90;;
42840;SDS011;28491;46.898;7.660;2023-03-30T14:25:21;10.18;;;3.88;;
42840;SDS011;28491;46.898;7.660;2023-03-30T14:27:56;6.18;;;2.72;;
42840;SDS011;28491;46.898;7.660;2023-03-30T14:30:26;10.68;;;3.47;;
42840;SDS011;28491;46.898;7.660;2023-03-30T14:33:14;8.88;;;3.17;;
42840;SDS011;28491;46.898;7.660;2023-03-30T14:35:50;8.02;;;2.60;;
42840;SDS011;28491;46.898;7.660;2023-03-30T14:38:23;10.20;;;3.67;;
42840;SDS011;28491;46.898;7.660;2023-03-30T14:40:54;10.07;;;3.17;;
42840;SDS011;28491;46.898;7.660;2023-03-30T14:43:27;8.77;;;3.40;;
42840;SDS011;28491;46.898;7.660;2023-03-30T14:45:56;8.32;;;3.63;;
42840;SDS011;28491;46.898;7.660;2023-03-30T14:50:55;6.40;;;3.55;;
42840;SDS011;28491;46.898;7.660;2023-03-30T14:53:25;13.27;;;4.63;;
42840;SDS011;28491;46.898;7.660;2023-03-30T14:55:52;9.35;;;4.20;;
42840;SDS011;28491;46.898;7.660;2023-03-30T14:58:23;6.75;;;3.67;;
42840;SDS011;28491;46.898;7.660;2023-03-30T15:00:58;6.32;;;3.40;;
42840;SDS011;28491;46.898;7.660;2023-03-30T15:03:27;12.15;;;4.10;;
42840;SDS011;28491;46.898;7.660;2023-03-30T15:05:58;9.70;;;4.20;;
42840;SDS011;28491;46.898;7.660;2023-03-30T15:08:25;11.10;;;4.05;;
42840;SDS011;28491;46.898;7.660;2023-03-30T15:10:55;7.60;;;4.13;;
42840;SDS011;28491;46.898;7.660;2023-03-30T15:13:30;6.93;;;2.58;;
42840;SDS011;28491;46.898;7.660;2023-03-30T15:15:58;11.57;;;4.35;;
42840;SDS011;28491;46.898;7.660;2023-03-30T15:18:25;12.52;;;3.38;;
42840;SDS011;28491;46.898;7.660;2023-03-30T15:20:53;11.50;;;3.03;;
42840;SDS011;28491;46.898;7.660;2023-03-30T15:23:19;8.80;;;3.78;;
42840;SDS011;28491;46.898;7.660;2023-03-30T15:25:46;5.88;;;2.60;;
42840;SDS011;28491;46.898;7.660;2023-03-30T15:28:13;7.57;;;3.30;;
42840;SDS011;28491;46.898;7.660;2023-03-30T15:30:44;12.57;;;4.18;;
42840;SDS011;28491;46.898;7.660;2023-03-30T15:35:51;9.57;;;4.22;;
42840;SDS011;28491;46.898;7.660;2023-03-30T15:38:17;12.10;;;4.45;;
42840;SDS011;28491;46.898;7.660;2023-03-30T15:40:51;9.15;;;3.95;;
42840;SDS011;28491;46.898;7.660;2023-03-30T15:45:45;11.85;;;4.45;;
42840;SDS011;28491;46.898;7.660;2023-03-30T15:48:25;7.00;;;3.50;;
42840;SDS011;28491;46.898;7.660;2023-03-30T15:51:01;10.18;;;3.70;;
42840;SDS011;28491;46.898;7.660;2023-03-30T15:53:35;8.75;;;3.78;;
42840;SDS011;28491;46.898;7.660;2023-03-30T15:58:41;9.77;;;4.43;;
42840;SDS011;28491;46.898;7.660;2023-03-30T16:01:08;10.43;;;4.63;;
42840;SDS011;28491;46.898;7.660;2023-03-30T16:03:38;10.82;;;4.05;;
42840;SDS011;28491;46.898;7.660;2023-03-30T16:06:04;12.43;;;4.75;;
42840;SDS011;28491;46.898;7.660;2023-03-30T16:08:30;6.97;;;3.50;;
42840;SDS011;28491;46.898;7.660;2023-03-30T16:10:56;7.15;;;3.72;;
42840;SDS011;28491;46.898;7.660;2023-03-30T16:13:22;9.95;;;5.35;;
42840;SDS011;28491;46.898;7.660;2023-03-30T16:15:47;10.52;;;5.15;;
42840;SDS011;28491;46.898;7.660;2023-03-30T16:18:13;9.75;;;4.18;;
42840;SDS011;28491;46.898;7.660;2023-03-30T16:20:40;10.57;;;4.18;;
42840;SDS011;28491;46.898;7.660;2023-03-30T16:23:06;8.98;;;4.70;;
42840;SDS011;28491;46.898;7.660;2023-03-30T16:25:33;7.70;;;4.05;;
42840;SDS011;28491;46.898;7.660;2023-03-30T16:27:58;10.48;;;4.05;;
42840;SDS011;28491;46.898;7.660;2023-03-30T16:30:28;9.07;;;4.38;;
42840;SDS011;28491;46.898;7.660;2023-03-30T16:32:58;8.60;;;4.43;;
42840;SDS011;28491;46.898;7.660;2023-03-30T16:35:24;7.15;;;3.65;;
42840;SDS011;28491;46.898;7.660;2023-03-30T16:37:50;11.13;;;4.45;;
42840;SDS011;28491;46.898;7.660;2023-03-30T16:43:00;10.40;;;4.45;;
42840;SDS011;28491;46.898;7.660;2023-03-30T16:45:26;10.40;;;4.53;;
42840;SDS011;28491;46.898;7.660;2023-03-30T16:47:52;8.75;;;4.18;;
42840;SDS011;28491;46.898;7.660;2023-03-30T16:50:21;8.23;;;4.65;;
42840;SDS011;28491;46.898;7.660;2023-03-30T16:52:51;9.07;;;4.25;;
42840;SDS011;28491;46.898;7.660;2023-03-30T16:55:17;9.90;;;4.57;;
42840;SDS011;28491;46.898;7.660;2023-03-30T16:57:43;9.77;;;4.60;;
42840;SDS011;28491;46.898;7.660;2023-03-30T17:00:23;7.95;;;4.55;;
42840;SDS011;28491;46.898;7.660;2023-03-30T17:02:51;13.85;;;6.38;;
42840;SDS011;28491;46.898;7.660;2023-03-30T17:05:16;12.88;;;7.15;;
42840;SDS011;28491;46.898;7.660;2023-03-30T17:07:42;11.77;;;5.53;;
42840;SDS011;28491;46.898;7.660;2023-03-30T17:12:39;10.32;;;4.47;;